Time;durP1;ratioP1;P1;durP2;ratioP2;P2;SDS_P1;SDS_P2;PMS_P1;PMS_P2;Temp;Humidity;BMP_temperature;BMP_pressure;BME280_temperature;BME280_humidity;BME280_pressure;Samples;Min_cycle;Max_cycle;Signal;HPM_P1;HPM_P2
2023/06/06 00:01:58;;;;;;;3.60;1.85;;;21.00;68.60;;;;;;5037722;28;20207;-65
2023/06/06 00:04:27;;;;;;;1.88;1.77;;;21.00;68.70;;;;;;5030150;28;20333;-63
2023/06/06 00:06:54;;;;;;;3.78;2.67;;;21.00;68.70;;;;;;5030598;28;20674;-64
2023/06/06 00:09:21;;;;;;;2.70;2.47;;;21.00;68.60;;;;;;5045298;28;20697;-65
2023/06/06 00:11:48;;;;;;;1.95;1.75;;;21.00;68.70;;;;;;5039839;28;20290;-64
2023/06/06 00:14:16;;;;;;;4.30;2.45;;;21.00;68.70;;;;;;5040466;28;20202;-65
2023/06/06 00:16:46;;;;;;;3.80;2.20;;;21.00;68.70;;;;;;5050709;28;20202;-62
2023/06/06 00:19:13;;;;;;;2.10;1.80;;;21.00;68.70;;;;;;5035071;28;20204;-64
2023/06/06 00:21:41;;;;;;;2.33;1.95;;;21.00;68.70;;;;;;5037307;28;20393;-64
2023/06/06 00:24:11;;;;;;;3.08;2.13;;;21.00;68.70;;;;;;5036692;28;20268;-62
2023/06/06 00:26:38;;;;;;;2.20;1.75;;;21.00;68.70;;;;;;5029892;28;20199;-64
2023/06/06 00:29:05;;;;;;;2.13;1.90;;;21.00;68.70;;;;;;5030736;28;20686;-64
2023/06/06 00:31:32;;;;;;;2.85;2.10;;;21.00;68.70;;;;;;5035343;28;20281;-61
2023/06/06 00:33:58;;;;;;;2.35;1.90;;;21.00;68.80;;;;;;5041262;28;20195;-64
2023/06/06 00:36:25;;;;;;;2.33;2.13;;;21.00;68.80;;;;;;5041497;28;20225;-64
2023/06/06 00:38:53;;;;;;;3.53;2.05;;;21.00;68.80;;;;;;5027492;28;20526;-64
2023/06/06 00:41:20;;;;;;;4.97;1.90;;;21.00;68.80;;;;;;5034818;28;20307;-62
2023/06/06 00:43:47;;;;;;;2.33;1.70;;;21.00;68.80;;;;;;5034653;28;20204;-65
2023/06/06 00:46:14;;;;;;;2.85;1.98;;;21.00;68.80;;;;;;5037441;28;20317;-63
2023/06/06 00:48:41;;;;;;;2.15;1.77;;;20.90;68.70;;;;;;5038406;28;20666;-64
2023/06/06 00:51:10;;;;;;;2.35;1.85;;;21.00;68.80;;;;;;5042983;28;20223;-61
2023/06/06 00:53:37;;;;;;;1.45;1.35;;;21.00;68.80;;;;;;5039350;28;20199;-65
2023/06/06 00:56:07;;;;;;;4.38;2.17;;;21.00;68.80;;;;;;5043417;28;20191;-64
2023/06/06 00:58:35;;;;;;;2.67;2.45;;;21.00;68.70;;;;;;5031888;28;20561;-62
2023/06/06 01:01:02;;;;;;;2.78;2.03;;;21.00;68.70;;;;;;5039795;28;20465;-64
2023/06/06 01:03:29;;;;;;;2.92;1.80;;;21.00;68.80;;;;;;5029704;28;20806;-64
2023/06/06 01:05:56;;;;;;;1.60;1.50;;;21.00;68.80;;;;;;5040941;28;20200;-64
2023/06/06 01:08:23;;;;;;;2.00;1.70;;;21.00;68.90;;;;;;5033141;28;20531;-64
2023/06/06 01:10:51;;;;;;;1.67;1.58;;;21.00;68.90;;;;;;5038244;28;20294;-61
2023/06/06 01:13:26;;;;;;;1.80;1.60;;;21.00;69.00;;;;;;5036315;28;20634;-63
2023/06/06 01:15:58;;;;;;;1.40;1.30;;;21.00;69.00;;;;;;5037903;28;20198;-64
2023/06/06 01:18:25;;;;;;;1.95;1.42;;;21.00;69.10;;;;;;5036677;28;20638;-64
2023/06/06 01:20:52;;;;;;;2.75;2.33;;;20.90;69.00;;;;;;5036090;28;20203;-62
2023/06/06 01:23:21;;;;;;;2.10;1.80;;;20.90;69.00;;;;;;5045463;28;20261;-63
2023/06/06 01:25:48;;;;;;;2.50;1.60;;;20.90;69.00;;;;;;5035722;28;20610;-64
2023/06/06 01:28:15;;;;;;;2.47;2.00;;;20.90;69.00;;;;;;5031308;28;20199;-63
2023/06/06 01:30:43;;;;;;;2.53;1.85;;;21.00;69.90;;;;;;5038449;28;20227;-64
2023/06/06 01:33:23;;;;;;;2.40;1.83;;;20.90;69.00;;;;;;5032647;28;20200;-64
2023/06/06 01:35:59;;;;;;;1.70;1.52;;;20.90;69.00;;;;;;5037684;28;20202;-64
2023/06/06 01:38:31;;;;;;;1.95;1.85;;;20.90;69.00;;;;;;5038080;28;20558;-64
2023/06/06 01:41:02;;;;;;;1.88;1.75;;;21.00;69.20;;;;;;5037028;28;20200;-63
2023/06/06 01:43:31;;;;;;;2.15;1.95;;;20.90;69.10;;;;;;5034618;28;20243;-64
2023/06/06 01:45:58;;;;;;;1.58;1.48;;;20.90;69.20;;;;;;5032991;28;20204;-64
2023/06/06 01:48:26;;;;;;;1.88;1.73;;;20.90;69.10;;;;;;5029760;28;20277;-64
2023/06/06 01:50:54;;;;;;;1.98;1.60;;;21.00;69.20;;;;;;5030047;28;20249;-63
2023/06/06 01:53:20;;;;;;;2.13;1.63;;;21.00;69.30;;;;;;5031888;28;20200;-64
2023/06/06 01:55:49;;;;;;;2.30;2.10;;;20.90;69.10;;;;;;5036233;28;20651;-61
2023/06/06 01:58:17;;;;;;;2.30;1.83;;;20.90;69.20;;;;;;5041094;28;20219;-64
2023/06/06 02:00:44;;;;;;;11.50;1.90;;;20.90;69.00;;;;;;5027896;28;20299;-63
2023/06/06 02:03:11;;;;;;;2.05;1.60;;;20.90;69.10;;;;;;5034925;28;20200;-64
2023/06/06 02:05:38;;;;;;;1.88;1.65;;;20.90;69.20;;;;;;5034396;28;20207;-62
2023/06/06 02:08:05;;;;;;;2.45;1.65;;;20.90;69.10;;;;;;5039924;28;20192;-61
2023/06/06 02:10:32;;;;;;;2.70;1.77;;;20.90;69.20;;;;;;5037348;28;20265;-63
2023/06/06 02:13:00;;;;;;;1.95;1.75;;;20.90;69.20;;;;;;5032929;28;21669;-65
2023/06/06 02:15:29;;;;;;;2.75;1.80;;;21.00;69.30;;;;;;5034780;28;20203;-64
2023/06/06 02:17:56;;;;;;;1.98;1.88;;;20.90;69.20;;;;;;5035364;28;20199;-64
2023/06/06 02:20:22;;;;;;;1.92;1.38;;;20.90;69.20;;;;;;5041247;28;20874;-64
2023/06/06 02:22:49;;;;;;;1.65;1.55;;;20.90;69.20;;;;;;5037070;28;20188;-65
2023/06/06 02:25:16;;;;;;;2.05;1.73;;;21.00;69.30;;;;;;5036150;28;20241;-62
2023/06/06 02:27:48;;;;;;;1.60;1.50;;;20.90;69.20;;;;;;5044742;28;20196;-63
2023/06/06 02:30:16;;;;;;;2.38;2.17;;;20.90;69.20;;;;;;5036663;28;20226;-61
2023/06/06 02:32:43;;;;;;;2.38;1.67;;;20.90;69.20;;;;;;5031429;28;20292;-64
2023/06/06 02:35:10;;;;;;;2.00;1.63;;;20.90;69.20;;;;;;5028538;28;20199;-61
2023/06/06 02:37:36;;;;;;;1.70;1.60;;;20.90;69.40;;;;;;5031380;28;20765;-60
2023/06/06 02:40:08;;;;;;;2.10;1.85;;;20.90;69.30;;;;;;5042433;28;20195;-64
2023/06/06 02:42:35;;;;;;;2.05;1.92;;;20.90;69.20;;;;;;5034489;28;20188;-64
2023/06/06 02:45:02;;;;;;;1.40;1.30;;;20.90;69.20;;;;;;5033427;28;20187;-64
2023/06/06 02:47:29;;;;;;;1.40;1.30;;;20.90;69.30;;;;;;5035790;28;20290;-64
2023/06/06 02:49:56;;;;;;;2.45;2.13;;;20.90;69.20;;;;;;5033416;28;20257;-63
2023/06/06 02:52:24;;;;;;;1.63;1.50;;;20.90;69.20;;;;;;5040816;28;20196;-62
2023/06/06 02:54:51;;;;;;;2.65;2.22;;;20.90;69.30;;;;;;5037607;28;20214;-61
2023/06/06 02:57:17;;;;;;;1.65;1.52;;;20.90;69.30;;;;;;5026330;28;20196;-63
2023/06/06 02:59:44;;;;;;;1.90;1.60;;;20.90;69.30;;;;;;5031755;28;20204;-64
2023/06/06 03:02:11;;;;;;;1.70;1.60;;;20.90;69.20;;;;;;5030463;28;20518;-64
2023/06/06 03:04:40;;;;;;;1.70;1.42;;;20.90;69.30;;;;;;5030189;28;20205;-60
2023/06/06 03:07:10;;;;;;;1.77;1.67;;;20.90;69.30;;;;;;5027259;28;20208;-64
2023/06/06 03:09:36;;;;;;;2.97;2.00;;;20.90;69.30;;;;;;5023602;28;20214;-64
2023/06/06 03:12:03;;;;;;;2.17;1.98;;;20.90;69.30;;;;;;5027614;28;20215;-62
2023/06/06 03:14:30;;;;;;;1.55;1.42;;;20.90;69.30;;;;;;5025090;28;20200;-63
2023/06/06 03:16:57;;;;;;;3.20;2.10;;;20.90;69.30;;;;;;5023721;28;20207;-60
2023/06/06 03:19:24;;;;;;;1.95;1.85;;;20.90;69.30;;;;;;5027306;28;20639;-62
2023/06/06 03:21:52;;;;;;;1.90;1.70;;;20.90;69.30;;;;;;5046319;28;20278;-63
2023/06/06 03:24:19;;;;;;;1.77;1.67;;;20.90;69.30;;;;;;5038633;28;20362;-65
2023/06/06 03:26:47;;;;;;;1.50;1.40;;;20.90;69.40;;;;;;5035809;28;20187;-64
2023/06/06 03:29:14;;;;;;;1.70;1.50;;;20.90;69.30;;;;;;5036890;28;20271;-62
2023/06/06 03:31:41;;;;;;;1.77;1.50;;;20.90;69.30;;;;;;5034040;28;20216;-63
2023/06/06 03:34:08;;;;;;;1.50;1.40;;;20.90;69.30;;;;;;5035280;28;20274;-63
2023/06/06 03:36:35;;;;;;;1.83;1.60;;;20.90;69.30;;;;;;5041088;28;20207;-61
2023/06/06 03:39:04;;;;;;;1.95;1.75;;;20.90;69.30;;;;;;5037480;28;20223;-62
2023/06/06 03:41:31;;;;;;;1.48;1.35;;;20.90;69.30;;;;;;5041523;28;20208;-64
2023/06/06 03:43:59;;;;;;;1.63;1.48;;;20.90;69.30;;;;;;5038720;28;20203;-64
2023/06/06 03:46:26;;;;;;;2.92;1.52;;;20.90;69.30;;;;;;5035282;28;20203;-63
2023/06/06 03:48:52;;;;;;;2.20;1.90;;;20.90;69.30;;;;;;5033441;28;20786;-64
2023/06/06 03:51:19;;;;;;;1.65;1.55;;;20.90;69.30;;;;;;5041335;28;20224;-60
2023/06/06 03:53:46;;;;;;;1.60;1.50;;;20.90;69.30;;;;;;5035671;28;20207;-64
2023/06/06 03:56:15;;;;;;;2.10;1.75;;;20.90;69.30;;;;;;5036070;28;20204;-64
2023/06/06 03:58:43;;;;;;;1.70;1.58;;;20.90;69.20;;;;;;5038661;28;20282;-64
2023/06/06 04:01:10;;;;;;;1.73;1.63;;;20.90;69.30;;;;;;5033652;28;20210;-62
2023/06/06 04:03:37;;;;;;;1.92;1.80;;;20.90;69.30;;;;;;5037304;28;20196;-63
2023/06/06 04:06:04;;;;;;;1.73;1.63;;;20.90;69.30;;;;;;5038605;28;20257;-64
2023/06/06 04:08:31;;;;;;;1.90;1.65;;;20.90;69.30;;;;;;5037771;28;20588;-64
2023/06/06 04:10:58;;;;;;;1.50;1.40;;;20.90;69.30;;;;;;5043424;28;20227;-60
2023/06/06 04:13:26;;;;;;;2.25;2.05;;;20.90;69.30;;;;;;5030631;28;20290;-64
2023/06/06 04:15:53;;;;;;;1.77;1.67;;;20.90;69.30;;;;;;5034183;28;20192;-63
2023/06/06 04:18:20;;;;;;;2.05;1.85;;;20.90;69.30;;;;;;5033680;28;20203;-63
2023/06/06 04:20:46;;;;;;;1.40;1.30;;;20.90;69.30;;;;;;5031173;28;20564;-63
2023/06/06 04:23:13;;;;;;;2.47;1.63;;;20.90;69.30;;;;;;5044664;28;20266;-64
2023/06/06 04:25:40;;;;;;;1.70;1.60;;;20.90;69.20;;;;;;5045146;28;20199;-62
2023/06/06 04:28:06;;;;;;;1.77;1.67;;;20.90;69.20;;;;;;5045442;28;20663;-64
2023/06/06 04:30:36;;;;;;;2.08;1.95;;;20.90;69.30;;;;;;5034994;28;20353;-63
2023/06/06 04:33:05;;;;;;;1.70;1.50;;;20.90;69.30;;;;;;5037226;28;22512;-63
2023/06/06 04:35:31;;;;;;;2.55;1.55;;;20.90;69.30;;;;;;5032533;28;20263;-64
2023/06/06 04:37:58;;;;;;;2.20;2.00;;;20.80;69.20;;;;;;5029020;28;20196;-60
2023/06/06 04:40:32;;;;;;;1.98;1.30;;;20.80;69.20;;;;;;5040232;28;20575;-60
2023/06/06 04:43:01;;;;;;;1.60;1.50;;;20.90;69.30;;;;;;5036612;28;20688;-63
2023/06/06 04:45:27;;;;;;;1.50;1.40;;;20.80;69.10;;;;;;5038579;28;20199;-63
2023/06/06 04:47:57;;;;;;;1.63;1.40;;;20.80;69.20;;;;;;5033441;28;20202;-61
2023/06/06 04:50:24;;;;;;;1.67;1.58;;;20.80;69.20;;;;;;5038503;28;20215;-64
2023/06/06 04:52:51;;;;;;;1.55;1.40;;;20.90;69.30;;;;;;5035187;28;20199;-63
2023/06/06 04:55:18;;;;;;;1.88;1.50;;;20.80;69.20;;;;;;5031263;28;20249;-61
2023/06/06 04:57:44;;;;;;;1.67;1.58;;;20.80;69.20;;;;;;5032826;28;20275;-60
2023/06/06 05:00:13;;;;;;;4.07;1.52;;;20.80;69.20;;;;;;5033573;28;20660;-64
2023/06/06 05:02:40;;;;;;;1.80;1.67;;;20.80;69.20;;;;;;5036214;28;20736;-64
2023/06/06 05:05:09;;;;;;;1.45;1.30;;;20.80;69.20;;;;;;5034348;28;20196;-63
2023/06/06 05:07:37;;;;;;;2.20;2.00;;;20.80;69.10;;;;;;5039449;28;20197;-64
2023/06/06 05:10:04;;;;;;;1.75;1.65;;;20.80;69.20;;;;;;5042100;28;20621;-64
2023/06/06 05:12:31;;;;;;;1.73;1.63;;;20.90;69.20;;;;;;5034560;28;20226;-64
2023/06/06 05:14:58;;;;;;;1.65;1.55;;;20.80;69.20;;;;;;5034124;28;20210;-64
2023/06/06 05:17:26;;;;;;;2.15;1.85;;;20.80;69.20;;;;;;5038165;28;20206;-61
2023/06/06 05:19:54;;;;;;;1.60;1.40;;;20.80;69.20;;;;;;5034182;28;20199;-60
2023/06/06 05:22:22;;;;;;;2.17;1.52;;;20.80;69.20;;;;;;5033179;28;20607;-63
2023/06/06 05:24:48;;;;;;;1.70;1.60;;;20.80;69.20;;;;;;5036949;28;20214;-62
2023/06/06 05:27:15;;;;;;;1.40;1.30;;;20.80;69.20;;;;;;5030334;28;20273;-63
2023/06/06 05:29:42;;;;;;;1.92;1.80;;;20.80;69.20;;;;;;5034711;28;20204;-64
2023/06/06 05:32:09;;;;;;;2.00;1.80;;;20.80;69.20;;;;;;5040974;28;20223;-64
2023/06/06 05:34:39;;;;;;;2.58;2.10;;;20.80;69.20;;;;;;5031732;28;20204;-63
2023/06/06 05:37:07;;;;;;;1.67;1.52;;;20.80;69.20;;;;;;5038960;28;20290;-62
2023/06/06 05:39:35;;;;;;;1.80;1.67;;;20.80;69.20;;;;;;5039642;28;20192;-62
2023/06/06 05:42:02;;;;;;;1.55;1.45;;;20.90;69.30;;;;;;5042132;28;20252;-64
2023/06/06 05:44:28;;;;;;;1.52;1.42;;;20.80;69.20;;;;;;5039161;28;20203;-64
2023/06/06 05:46:55;;;;;;;1.67;1.58;;;20.80;69.20;;;;;;5038676;28;20291;-64
2023/06/06 05:49:23;;;;;;;2.03;1.83;;;20.80;69.30;;;;;;5040294;28;20327;-64
2023/06/06 05:51:49;;;;;;;1.45;1.30;;;20.80;69.30;;;;;;5047070;28;20357;-64
2023/06/06 05:54:16;;;;;;;2.30;2.10;;;20.80;69.30;;;;;;5050011;28;20196;-64
2023/06/06 05:56:44;;;;;;;2.35;1.80;;;20.80;69.30;;;;;;5040513;28;20200;-61
2023/06/06 05:59:11;;;;;;;3.47;1.83;;;20.80;69.30;;;;;;5035992;28;20200;-62
2023/06/06 06:01:39;;;;;;;2.53;2.00;;;20.80;69.30;;;;;;5043272;28;20195;-67
2023/06/06 06:04:07;;;;;;;1.77;1.67;;;20.80;69.30;;;;;;5034139;28;20730;-62
2023/06/06 06:06:34;;;;;;;1.40;1.20;;;20.80;69.30;;;;;;5037006;28;20214;-67
2023/06/06 06:09:03;;;;;;;1.30;1.20;;;20.80;69.30;;;;;;5035785;28;20191;-63
2023/06/06 06:11:30;;;;;;;1.55;1.45;;;20.80;69.30;;;;;;5040646;28;20227;-67
2023/06/06 06:13:58;;;;;;;1.95;1.80;;;20.80;69.30;;;;;;5040904;28;20191;-66
2023/06/06 06:16:24;;;;;;;2.38;1.55;;;20.80;69.30;;;;;;5037576;28;20598;-67
2023/06/06 06:18:51;;;;;;;2.00;1.80;;;20.80;69.30;;;;;;5037905;28;20207;-66
2023/06/06 06:21:19;;;;;;;1.58;1.45;;;20.90;69.40;;;;;;5037325;28;20195;-64
2023/06/06 06:23:45;;;;;;;1.70;1.42;;;20.90;69.50;;;;;;5035160;28;20995;-63
2023/06/06 06:26:12;;;;;;;1.80;1.48;;;20.90;69.50;;;;;;5045006;28;20563;-67
2023/06/06 06:28:39;;;;;;;1.80;1.70;;;20.90;69.50;;;;;;5044431;28;20245;-67
2023/06/06 06:31:07;;;;;;;1.65;1.55;;;20.90;69.50;;;;;;5038295;28;20655;-63
2023/06/06 06:33:33;;;;;;;1.42;1.33;;;20.90;69.50;;;;;;5045021;28;20188;-67
2023/06/06 06:36:00;;;;;;;1.40;1.30;;;20.90;69.50;;;;;;5049835;28;20191;-67
2023/06/06 06:38:27;;;;;;;2.40;1.85;;;20.90;69.40;;;;;;5037944;28;20203;-64
2023/06/06 06:40:54;;;;;;;2.17;1.77;;;20.90;69.40;;;;;;5033932;28;20201;-67
2023/06/06 06:43:21;;;;;;;3.00;2.03;;;20.90;69.80;;;;;;5036959;28;20200;-68
2023/06/06 06:45:47;;;;;;;1.90;1.70;;;20.90;70.10;;;;;;5039189;28;20196;-64
2023/06/06 06:48:15;;;;;;;2.15;1.95;;;21.00;70.50;;;;;;5035398;28;20196;-67
2023/06/06 06:50:42;;;;;;;11.98;1.83;;;20.90;70.10;;;;;;5036600;28;20245;-65
2023/06/06 06:53:10;;;;;;;2.08;1.75;;;20.90;70.40;;;;;;5044572;28;20554;-67
2023/06/06 06:55:37;;;;;;;4.95;2.58;;;21.00;70.60;;;;;;5040670;28;20191;-65
2023/06/06 06:58:05;;;;;;;2.65;2.45;;;21.00;70.50;;;;;;5043410;28;20199;-67
2023/06/06 07:00:33;;;;;;;2.47;1.55;;;21.00;71.00;;;;;;5041028;28;20199;-65
2023/06/06 07:03:03;;;;;;;2.33;1.65;;;21.00;71.00;;;;;;5047567;28;20290;-61
2023/06/06 07:05:32;;;;;;;2.20;1.98;;;21.00;71.20;;;;;;5042104;28;20298;-65
2023/06/06 07:07:59;;;;;;;3.03;2.00;;;21.00;71.20;;;;;;5046604;28;20195;-67
2023/06/06 07:10:28;;;;;;;2.67;2.47;;;21.00;71.10;;;;;;5051291;28;20676;-67
2023/06/06 07:12:56;;;;;;;5.03;1.80;;;21.10;71.40;;;;;;5050109;28;20215;-66
2023/06/06 07:15:22;;;;;;;2.05;1.85;;;21.00;71.30;;;;;;5044718;28;20208;-67
2023/06/06 07:17:50;;;;;;;2.60;2.40;;;21.10;71.40;;;;;;5046342;28;20200;-65
2023/06/06 07:20:18;;;;;;;1.98;1.75;;;21.00;71.30;;;;;;5049121;28;20200;-67
2023/06/06 07:22:46;;;;;;;3.35;1.65;;;21.10;71.60;;;;;;5048163;28;20196;-67
2023/06/06 07:25:13;;;;;;;2.70;1.60;;;21.10;71.50;;;;;;5041248;28;20231;-65
2023/06/06 07:27:41;;;;;;;2.17;1.60;;;21.10;71.70;;;;;;5037342;28;20257;-63
2023/06/06 07:30:12;;;;;;;2.58;2.30;;;21.10;72.50;;;;;;5035052;28;20193;-68
2023/06/06 07:32:39;;;;;;;2.65;1.85;;;21.10;71.60;;;;;;5035419;28;20215;-67
2023/06/06 07:35:07;;;;;;;2.17;1.80;;;21.10;71.90;;;;;;5033858;28;20191;-61
2023/06/06 07:37:35;;;;;;;4.07;2.22;;;21.10;71.90;;;;;;5041252;28;20274;-68
2023/06/06 07:40:05;;;;;;;1.77;1.63;;;21.10;71.70;;;;;;5046280;28;20203;-68
2023/06/06 07:42:32;;;;;;;4.25;2.67;;;21.10;71.50;;;;;;5046014;28;20659;-68
2023/06/06 07:44:58;;;;;;;5.82;3.80;;;21.10;71.70;;;;;;5046511;28;20253;-67
2023/06/06 07:47:25;;;;;;;4.70;3.53;;;21.20;72.10;;;;;;5050956;28;20199;-66
2023/06/06 07:49:52;;;;;;;6.65;4.85;;;21.10;73.00;;;;;;5051324;28;20524;-68
2023/06/06 07:52:20;;;;;;;6.70;4.78;;;21.10;73.20;;;;;;5049462;28;20219;-68
2023/06/06 07:54:46;;;;;;;9.35;5.10;;;21.20;73.50;;;;;;5048984;28;20195;-68
2023/06/06 07:57:16;;;;;;;5.82;5.22;;;21.20;73.60;;;;;;5044782;28;20231;-68
2023/06/06 07:59:43;;;;;;;5.60;5.03;;;21.20;75.00;;;;;;5043573;28;20278;-67
2023/06/06 08:02:10;;;;;;;7.03;5.45;;;21.20;74.10;;;;;;5043728;28;20197;-62
2023/06/06 08:04:37;;;;;;;7.55;5.55;;;21.20;74.30;;;;;;5043231;28;20199;-68
2023/06/06 08:07:04;;;;;;;10.68;5.00;;;21.20;74.20;;;;;;5039890;28;20245;-68
2023/06/06 08:09:31;;;;;;;5.47;4.95;;;21.20;74.60;;;;;;5042422;28;20599;-67
2023/06/06 08:11:58;;;;;;;4.28;3.88;;;21.20;74.50;;;;;;5042214;28;20310;-66
2023/06/06 08:14:26;;;;;;;6.78;3.80;;;21.20;74.80;;;;;;5044884;28;20200;-67
2023/06/06 08:16:52;;;;;;;5.47;4.10;;;21.20;74.50;;;;;;5048075;28;20326;-66
2023/06/06 08:19:19;;;;;;;7.20;3.30;;;21.20;74.20;;;;;;5044940;28;20901;-67
2023/06/06 08:21:46;;;;;;;10.80;3.83;;;21.20;74.00;;;;;;5042517;28;20223;-67
2023/06/06 08:24:12;;;;;;;5.07;3.22;;;21.20;74.00;;;;;;5044860;28;20265;-67
2023/06/06 08:26:39;;;;;;;4.78;3.97;;;21.20;73.80;;;;;;5042342;28;20241;-67
2023/06/06 08:29:06;;;;;;;4.22;3.30;;;21.20;73.60;;;;;;5040372;28;20192;-68
2023/06/06 08:31:34;;;;;;;5.00;3.20;;;21.20;73.60;;;;;;5041947;28;20256;-66
2023/06/06 08:34:00;;;;;;;6.28;3.70;;;21.20;73.70;;;;;;5043698;28;20195;-66
2023/06/06 08:36:27;;;;;;;9.13;3.58;;;21.30;73.80;;;;;;5039114;28;20249;-66
2023/06/06 08:38:55;;;;;;;6.10;2.72;;;21.30;73.70;;;;;;5045781;28;20200;-68
2023/06/06 08:41:24;;;;;;;3.42;3.13;;;21.30;73.90;;;;;;5042594;28;20230;-68
2023/06/06 08:43:55;;;;;;;5.88;2.75;;;21.30;73.90;;;;;;5044502;28;20205;-68
2023/06/06 08:46:24;;;;;;;3.30;3.00;;;21.30;73.90;;;;;;5039949;28;20199;-68
2023/06/06 08:48:53;;;;;;;3.88;3.53;;;21.30;73.90;;;;;;5035060;28;20250;-68
2023/06/06 08:51:27;;;;;;;4.40;3.22;;;21.30;74.10;;;;;;5038652;28;20206;-68
2023/06/06 08:53:55;;;;;;;6.90;3.20;;;21.30;74.80;;;;;;5044929;28;20310;-64
2023/06/06 08:56:22;;;;;;;3.10;2.70;;;21.30;74.10;;;;;;5047532;28;20199;-67
2023/06/06 08:58:51;;;;;;;4.53;2.78;;;21.30;73.80;;;;;;5042941;28;20198;-67
2023/06/06 09:01:19;;;;;;;3.40;2.97;;;21.30;73.20;;;;;;5040155;28;20202;-68
2023/06/06 09:03:46;;;;;;;2.95;2.47;;;21.30;72.90;;;;;;5039593;28;20195;-68
2023/06/06 09:06:16;;;;;;;2.80;2.17;;;21.30;72.50;;;;;;5039902;28;20204;-67
2023/06/06 09:08:44;;;;;;;3.50;2.92;;;21.30;72.40;;;;;;5045127;28;20624;-67
2023/06/06 09:11:11;;;;;;;3.63;2.90;;;21.30;72.40;;;;;;5044466;28;20274;-67
2023/06/06 09:13:42;;;;;;;2.88;2.38;;;21.30;72.50;;;;;;5050780;28;20226;-67
2023/06/06 09:16:09;;;;;;;3.60;3.30;;;21.30;72.50;;;;;;5051380;28;20249;-68
2023/06/06 09:18:36;;;;;;;2.90;2.70;;;21.30;72.60;;;;;;5050171;28;20286;-65
2023/06/06 09:21:03;;;;;;;2.37;2.17;;;21.30;72.70;;;;;;5049121;28;20277;-68
2023/06/06 09:23:31;;;;;;;3.03;2.70;;;21.30;72.80;;;;;;5054084;28;20485;-66
2023/06/06 09:25:58;;;;;;;7.05;2.90;;;21.30;72.90;;;;;;5043016;28;20207;-66
2023/06/06 09:28:37;;;;;;;4.47;3.20;;;21.30;72.80;;;;;;5051427;28;20793;-64
2023/06/06 09:31:22;;;;;;;3.08;2.55;;;21.40;73.10;;;;;;5045896;28;20289;-64
2023/06/06 09:33:49;;;;;;;5.32;3.50;;;21.40;73.20;;;;;;5041585;28;20218;-66
2023/06/06 09:36:16;;;;;;;5.38;3.72;;;21.40;73.30;;;;;;5038676;28;20203;-70
2023/06/06 09:38:44;;;;;;;4.75;2.88;;;21.40;73.40;;;;;;5042543;28;20583;-67
2023/06/06 09:41:11;;;;;;;4.10;3.17;;;21.40;73.90;;;;;;5037813;28;20723;-68
2023/06/06 09:43:38;;;;;;;5.10;3.30;;;21.40;73.80;;;;;;5041946;28;20667;-69
2023/06/06 09:46:05;;;;;;;5.10;3.35;;;21.40;73.90;;;;;;5043263;28;20591;-67
2023/06/06 09:48:33;;;;;;;3.88;3.47;;;21.40;73.90;;;;;;5040838;28;20201;-69
2023/06/06 09:51:00;;;;;;;3.70;3.10;;;21.40;73.90;;;;;;5052278;28;20207;-64
2023/06/06 09:53:28;;;;;;;4.95;3.35;;;21.50;73.80;;;;;;5048639;28;20220;-65
2023/06/06 09:55:57;;;;;;;6.23;3.97;;;21.50;73.70;;;;;;5048161;28;20200;-61
2023/06/06 09:58:27;;;;;;;3.80;3.50;;;21.50;73.80;;;;;;5052071;28;20460;-72
2023/06/06 10:00:58;;;;;;;5.33;4.83;;;21.60;73.90;;;;;;5043589;28;20249;-62
2023/06/06 10:03:25;;;;;;;3.67;3.33;;;21.60;73.90;;;;;;5049435;28;20958;-68
2023/06/06 10:05:53;;;;;;;7.18;3.50;;;21.60;73.90;;;;;;5044465;28;20257;-71
2023/06/06 10:08:21;;;;;;;4.07;3.55;;;21.70;73.90;;;;;;5046673;28;20676;-66
2023/06/06 10:10:50;;;;;;;4.35;3.60;;;21.70;73.80;;;;;;5050117;28;20188;-64
2023/06/06 10:13:19;;;;;;;5.13;3.57;;;21.70;73.90;;;;;;5052769;28;20307;-64
2023/06/06 10:15:46;;;;;;;6.93;3.77;;;21.70;73.70;;;;;;5048626;28;20487;-63
2023/06/06 10:18:14;;;;;;;5.63;4.17;;;21.80;74.00;;;;;;5044438;28;20521;-60
2023/06/06 10:20:41;;;;;;;5.80;3.77;;;21.80;74.00;;;;;;5044304;28;20458;-65
2023/06/06 10:23:08;;;;;;;5.23;4.07;;;21.80;73.90;;;;;;5042792;28;20511;-64
2023/06/06 10:25:37;;;;;;;6.13;4.10;;;21.90;74.10;;;;;;5044617;28;20453;-66
2023/06/06 10:28:11;;;;;;;5.37;3.90;;;21.90;73.90;;;;;;5049932;28;20493;-70
2023/06/06 10:30:55;;;;;;;9.07;3.70;;;21.90;73.90;;;;;;5053294;28;20976;-64
2023/06/06 10:33:32;;;;;;;6.80;3.43;;;21.90;73.90;;;;;;5049974;28;20470;-63
2023/06/06 10:36:03;;;;;;;4.33;3.80;;;22.00;74.00;;;;;;5048189;28;20496;-65
2023/06/06 10:38:30;;;;;;;4.57;4.17;;;22.00;73.80;;;;;;5044398;28;20465;-59
2023/06/06 10:40:59;;;;;;;4.50;3.30;;;22.00;73.90;;;;;;5048440;28;20454;-67
2023/06/06 10:43:51;;;;;;;4.73;3.60;;;22.10;74.00;;;;;;5042796;28;20542;-63
2023/06/06 10:46:19;;;;;;;7.70;3.67;;;22.00;73.80;;;;;;5044680;28;20886;-59
2023/06/06 10:48:54;;;;;;;4.70;4.00;;;22.10;73.70;;;;;;5034786;28;20454;-67
2023/06/06 10:51:35;;;;;;;4.00;3.10;;;22.10;73.50;;;;;;5036190;28;20461;-67
2023/06/06 10:54:20;;;;;;;5.70;3.97;;;22.10;73.70;;;;;;5041621;28;20486;-71
2023/06/06 10:56:50;;;;;;;6.50;3.70;;;22.20;73.60;;;;;;5038431;28;20461;-63
2023/06/06 10:59:17;;;;;;;4.43;3.73;;;22.20;73.70;;;;;;5038434;28;21537;-62
2023/06/06 11:01:45;;;;;;;5.63;4.17;;;22.20;73.40;;;;;;5041666;28;20508;-65
2023/06/06 11:04:20;;;;;;;5.27;4.60;;;22.20;73.50;;;;;;5032586;28;20541;-66
2023/06/06 11:06:48;;;;;;;11.57;3.87;;;22.30;73.30;;;;;;5045395;28;20454;-66
2023/06/06 11:09:22;;;;;;;6.80;4.03;;;22.30;73.40;;;;;;5038305;28;20903;-68
2023/06/06 11:11:50;;;;;;;5.13;3.40;;;22.30;73.20;;;;;;5029991;28;20984;-63
2023/06/06 11:14:22;;;;;;;4.90;4.47;;;22.30;73.20;;;;;;5026284;28;21058;-65
2023/06/06 11:17:01;;;;;;;4.97;3.80;;;22.30;73.10;;;;;;5027859;28;20464;-66
2023/06/06 11:19:37;;;;;;;6.03;3.57;;;22.30;73.10;;;;;;5023475;28;20470;-66
2023/06/06 11:22:04;;;;;;;5.10;3.67;;;22.30;73.00;;;;;;5032085;28;20628;-66
2023/06/06 11:24:35;;;;;;;5.70;3.00;;;22.30;73.00;;;;;;5034808;28;20469;-65
2023/06/06 11:27:02;;;;;;;4.80;3.90;;;22.30;72.80;;;;;;5029549;28;21424;-65
2023/06/06 11:29:31;;;;;;;4.40;3.37;;;22.30;73.60;;;;;;5042289;28;20454;-66
2023/06/06 11:31:59;;;;;;;6.17;3.50;;;22.30;72.70;;;;;;5034277;28;20545;-66
2023/06/06 11:34:26;;;;;;;4.60;3.23;;;22.30;72.50;;;;;;5034424;28;20482;-66
2023/06/06 11:36:53;;;;;;;6.40;3.43;;;22.30;72.50;;;;;;5036708;28;20524;-65
2023/06/06 11:39:21;;;;;;;3.80;3.40;;;22.30;72.60;;;;;;5039027;28;20466;-66
2023/06/06 11:41:48;;;;;;;12.40;3.63;;;22.30;72.50;;;;;;5030400;28;20196;-66
2023/06/06 11:44:16;;;;;;;4.30;3.90;;;22.30;72.40;;;;;;5025984;28;20461;-66
2023/06/06 11:46:48;;;;;;;3.30;2.73;;;22.30;72.40;;;;;;5043371;28;20492;-65
2023/06/06 11:49:16;;;;;;;4.23;3.83;;;22.30;72.40;;;;;;5047125;28;20553;-64
2023/06/06 11:51:43;;;;;;;4.27;3.33;;;22.30;72.40;;;;;;5043545;28;20837;-66
2023/06/06 11:54:17;;;;;;;3.63;3.30;;;22.30;72.40;;;;;;5048780;28;20473;-66
2023/06/06 11:56:44;;;;;;;3.60;3.30;;;22.30;72.30;;;;;;5045994;28;20195;-66
2023/06/06 11:59:12;;;;;;;4.20;3.37;;;22.30;72.20;;;;;;5044319;28;20469;-66
2023/06/06 12:01:49;;;;;;;3.88;3.58;;;22.30;72.30;;;;;;5042525;28;20461;-67
2023/06/06 12:04:18;;;;;;;5.50;3.73;;;22.30;72.10;;;;;;5037935;28;20286;-67
2023/06/06 12:06:49;;;;;;;4.43;4.03;;;22.30;72.20;;;;;;5046283;28;20485;-66
2023/06/06 12:09:17;;;;;;;4.40;3.60;;;22.30;72.00;;;;;;5036717;28;20553;-67
2023/06/06 12:11:51;;;;;;;3.10;2.80;;;22.30;72.10;;;;;;5032379;28;20473;-64
2023/06/06 12:14:18;;;;;;;4.20;2.90;;;22.30;72.00;;;;;;5039249;28;20365;-66
2023/06/06 12:16:45;;;;;;;7.03;3.45;;;22.30;72.00;;;;;;5045655;28;20198;-65
2023/06/06 12:19:13;;;;;;;3.43;3.07;;;22.30;72.00;;;;;;5039760;28;20215;-65
2023/06/06 12:21:48;;;;;;;4.20;3.47;;;22.30;72.00;;;;;;5039312;28;20553;-66
2023/06/06 12:24:20;;;;;;;2.97;2.77;;;22.20;71.70;;;;;;5042347;28;20481;-64
2023/06/06 12:26:53;;;;;;;4.47;3.00;;;22.20;71.70;;;;;;5039971;28;20455;-67
2023/06/06 12:29:19;;;;;;;3.97;3.37;;;22.20;71.70;;;;;;5032493;28;20455;-67
2023/06/06 12:31:46;;;;;;;3.43;3.07;;;22.20;71.70;;;;;;5037182;28;20512;-66
2023/06/06 12:34:16;;;;;;;4.35;3.33;;;22.20;71.70;;;;;;5044950;28;20885;-67
2023/06/06 12:36:43;;;;;;;3.45;2.85;;;22.20;71.60;;;;;;5046320;28;20196;-65
2023/06/06 12:39:13;;;;;;;5.10;2.90;;;22.20;71.60;;;;;;5039506;28;20562;-66
2023/06/06 12:41:41;;;;;;;3.40;3.10;;;22.20;71.50;;;;;;5037400;28;20454;-67
2023/06/06 12:44:11;;;;;;;4.15;2.72;;;22.20;71.40;;;;;;5046532;28;20465;-67
2023/06/06 12:46:38;;;;;;;4.97;3.40;;;22.20;71.40;;;;;;5044688;28;20195;-67
2023/06/06 12:49:05;;;;;;;3.72;3.42;;;22.20;71.30;;;;;;5034928;28;20459;-65
2023/06/06 12:51:33;;;;;;;5.75;3.17;;;22.20;71.30;;;;;;5044618;28;20199;-66